Time;durP1;ratioP1;P1;durP2;ratioP2;P2;SDS_P1;SDS_P2;PMS_P1;PMS_P2;Temp;Humidity;BMP_temperature;BMP_pressure;BME280_temperature;BME280_humidity;BME280_pressure;Samples;Min_cycle;Max_cycle;Signal;HPM_P1;HPM_P2
2022/11/25 00:02:25;;;;;;;22.00;4.47;;;;;;;5.82;100.00;100838.19;4949716;28;20046;-75
2022/11/25 00:04:50;;;;;;;22.92;5.18;;;;;;;5.82;100.00;100830.47;4961293;28;20059;-75
2022/11/25 00:07:15;;;;;;;26.35;4.60;;;;;;;5.89;100.00;100825.63;4964511;28;20414;-76
2022/11/25 00:09:41;;;;;;;25.20;4.25;;;;;;;5.86;100.00;100833.59;4947580;28;20043;-76
2022/11/25 00:12:06;;;;;;;36.20;4.75;;;;;;;5.88;100.00;100820.59;4949221;28;20096;-75
2022/11/25 00:14:32;;;;;;;34.85;4.30;;;;;;;5.85;100.00;100821.66;4967028;28;20050;-75
2022/11/25 00:16:57;;;;;;;17.17;5.28;;;;;;;5.98;100.00;100824.91;4965257;28;20043;-75
2022/11/25 00:19:23;;;;;;;18.70;3.70;;;;;;;5.87;100.00;100812.06;4961742;28;20038;-76
2022/11/25 00:21:48;;;;;;;18.77;4.30;;;;;;;5.82;100.00;100814.19;4965099;28;20049;-76
2022/11/25 00:24:15;;;;;;;23.77;4.32;;;;;;;5.84;100.00;100812.34;4967723;28;20045;-75
2022/11/25 00:26:40;;;;;;;24.35;5.10;;;;;;;5.91;100.00;100813.44;4965357;28;20054;-75
2022/11/25 00:29:09;;;;;;;24.33;4.50;;;;;;;5.95;100.00;100803.72;4947999;28;20038;-76
2022/11/25 00:31:37;;;;;;;21.00;3.72;;;;;;;5.98;100.00;100801.75;4966713;28;20035;-75
2022/11/25 00:34:03;;;;;;;27.10;5.32;;;;;;;5.94;100.00;100796.94;4950812;28;20049;-75
2022/11/25 00:36:31;;;;;;;26.55;3.97;;;;;;;5.99;100.00;100792.25;4943681;28;20050;-76
2022/11/25 00:38:59;;;;;;;25.05;3.92;;;;;;;5.98;100.00;100793.22;4964373;28;20491;-75
2022/11/25 00:46:56;;;;;;;22.90;4.85;;;;;;;6.02;100.00;100779.13;4963016;28;20054;-76
2022/11/25 00:49:22;;;;;;;18.98;5.43;;;;;;;6.07;100.00;100786.50;4946030;28;20121;-76
2022/11/25 00:51:47;;;;;;;21.00;3.97;;;;;;;6.04;100.00;100790.94;4958120;28;20038;-75
2022/11/25 00:54:13;;;;;;;21.15;4.03;;;;;;;6.01;100.00;100780.91;4963780;28;20022;-75
2022/11/25 00:56:38;;;;;;;16.00;4.18;;;;;;;6.03;100.00;100794.47;4964432;28;20053;-75
2022/11/25 00:59:04;;;;;;;21.98;4.57;;;;;;;6.07;100.00;100786.50;4965457;28;20479;-75
2022/11/25 01:01:29;;;;;;;18.60;4.38;;;;;;;6.10;100.00;100788.78;4945865;28;20038;-75
2022/11/25 01:03:55;;;;;;;22.48;4.13;;;;;;;6.10;100.00;100775.94;4963613;28;20078;-75
2022/11/25 01:06:21;;;;;;;18.20;4.38;;;;;;;6.08;100.00;100781.19;4961008;28;20081;-75
2022/11/25 01:08:46;;;;;;;22.65;3.92;;;;;;;6.19;100.00;100780.31;4940806;28;20049;-75
2022/11/25 01:11:15;;;;;;;25.33;4.78;;;;;;;6.14;100.00;100769.56;4960024;28;20067;-75
2022/11/25 01:13:41;;;;;;;15.60;4.38;;;;;;;6.11;100.00;100775.81;4948402;28;20027;-75
2022/11/25 01:16:09;;;;;;;21.88;4.53;;;;;;;6.10;100.00;100773.34;4963011;28;20059;-76
2022/11/25 01:18:35;;;;;;;24.85;4.72;;;;;;;6.19;100.00;100768.25;4942570;28;20039;-75
2022/11/25 01:21:08;;;;;;;19.08;4.60;;;;;;;6.16;100.00;100773.66;4959126;28;20517;-75
2022/11/25 01:23:34;;;;;;;21.73;4.70;;;;;;;6.18;100.00;100770.97;4958295;28;20076;-76
2022/11/25 01:26:03;;;;;;;24.10;4.13;;;;;;;6.29;100.00;100770.06;4943981;28;20051;-75
2022/11/25 01:28:29;;;;;;;18.08;3.88;;;;;;;6.31;100.00;100776.72;4958045;28;20046;-75
2022/11/25 01:31:04;;;;;;;23.42;3.97;;;;;;;6.26;100.00;100772.91;4954930;28;20050;-75
2022/11/25 01:33:33;;;;;;;17.73;3.33;;;;;;;6.29;100.00;100776.03;4945099;28;20527;-76
2022/11/25 01:36:06;;;;;;;19.80;3.88;;;;;;;6.30;100.00;100762.22;4964259;28;20105;-75
2022/11/25 01:38:33;;;;;;;23.70;5.03;;;;;;;6.27;100.00;100766.78;4942611;28;20510;-75
2022/11/25 01:40:59;;;;;;;19.60;3.80;;;;;;;6.34;100.00;100767.91;4962668;28;20499;-75
2022/11/25 01:43:26;;;;;;;29.90;4.72;;;;;;;6.24;100.00;100776.41;4970331;28;20117;-76
2022/11/25 01:45:56;;;;;;;25.48;3.72;;;;;;;6.37;100.00;100760.75;4964009;28;20073;-75
2022/11/25 01:48:36;;;;;;;26.67;4.85;;;;;;;6.42;100.00;100768.06;4949771;28;20030;-76
2022/11/25 01:51:02;;;;;;;22.88;3.65;;;;;;;6.38;100.00;100757.22;4949267;28;20057;-76
2022/11/25 01:53:27;;;;;;;16.65;4.28;;;;;;;6.37;100.00;100763.31;4973029;28;20030;-76
2022/11/25 01:55:59;;;;;;;24.60;4.28;;;;;;;6.43;100.00;100759.41;4940251;28;20054;-75
2022/11/25 01:58:34;;;;;;;21.58;3.72;;;;;;;6.37;100.00;100758.19;4966010;28;21549;-76
2022/11/25 02:00:59;;;;;;;26.70;4.35;;;;;;;6.39;100.00;100758.06;4948631;28;20093;-75
2022/11/25 02:03:31;;;;;;;18.02;4.15;;;;;;;6.38;100.00;100762.38;4951767;28;20022;-76
2022/11/25 02:06:12;;;;;;;27.27;5.88;;;;;;;6.44;100.00;100766.19;4969699;28;20616;-75
2022/11/25 02:08:38;;;;;;;20.00;3.63;;;;;;;6.39;100.00;100770.94;4967076;28;20042;-75
2022/11/25 02:11:04;;;;;;;26.02;4.35;;;;;;;6.48;100.00;100772.72;4948264;28;20528;-77
2022/11/25 02:13:31;;;;;;;27.90;4.20;;;;;;;6.46;100.00;100764.31;4954234;28;20299;-76
2022/11/25 02:15:59;;;;;;;14.35;3.30;;;;;;;6.48;100.00;100767.59;4965909;28;20035;-76
2022/11/25 02:18:26;;;;;;;23.77;4.13;;;;;;;6.65;100.00;100763.56;4963098;28;20048;-76
2022/11/25 02:20:52;;;;;;;23.30;3.90;;;;;;;6.70;100.00;100776.03;4964537;28;20393;-75
2022/11/25 02:23:38;;;;;;;22.10;3.97;;;;;;;6.57;100.00;100776.28;4950476;28;20054;-76
2022/11/25 02:26:04;;;;;;;17.27;3.78;;;;;;;6.51;100.00;100775.03;4963790;28;20082;-74
2022/11/25 02:28:31;;;;;;;22.15;3.22;;;;;;;6.54;100.00;100781.69;4944644;28;20058;-76
2022/11/25 02:30:57;;;;;;;13.05;3.08;;;;;;;6.56;100.00;100784.97;4964175;28;20411;-76
2022/11/25 02:33:24;;;;;;;21.55;4.43;;;;;;;6.58;100.00;100786.44;4964509;28;20120;-76
2022/11/25 02:35:55;;;;;;;24.77;4.03;;;;;;;6.77;100.00;100788.28;4948401;28;20042;-76
2022/11/25 02:38:29;;;;;;;14.40;3.40;;;;;;;6.87;100.00;100784.91;4949210;28;20494;-76
2022/11/25 02:41:05;;;;;;;19.98;4.20;;;;;;;6.87;100.00;100790.06;4965725;28;20563;-75
2022/11/25 02:43:31;;;;;;;22.20;3.33;;;;;;;6.80;100.00;100787.22;4964583;28;20463;-76
2022/11/25 02:46:01;;;;;;;16.45;3.13;;;;;;;6.82;100.00;100786.13;4965616;28;20053;-75
2022/11/25 02:48:30;;;;;;;26.08;5.00;;;;;;;6.85;100.00;100794.53;4957931;28;20039;-76
2022/11/25 02:50:55;;;;;;;23.70;3.10;;;;;;;6.78;100.00;100789.91;4943293;28;20051;-76
2022/11/25 02:53:21;;;;;;;14.73;2.83;;;;;;;6.82;100.00;100791.28;4949209;28;20066;-76
2022/11/25 02:55:47;;;;;;;18.23;3.80;;;;;;;6.80;100.00;100792.38;4943846;28;20090;-76
2022/11/25 02:58:12;;;;;;;17.35;4.03;;;;;;;6.82;100.00;100790.47;4966472;28;20035;-76
2022/11/25 03:00:39;;;;;;;15.52;3.42;;;;;;;6.89;100.00;100794.13;4961724;28;20125;-75
2022/11/25 03:03:04;;;;;;;15.32;3.92;;;;;;;6.96;100.00;100791.84;4962937;28;20039;-76
2022/11/25 03:05:30;;;;;;;25.50;4.28;;;;;;;6.99;100.00;100795.00;4962286;28;20797;-76
2022/11/25 03:07:58;;;;;;;14.40;2.97;;;;;;;7.05;100.00;100800.56;4964204;28;20456;-76
2022/11/25 03:10:24;;;;;;;26.15;4.20;;;;;;;7.02;100.00;100797.28;4967032;28;20560;-76
2022/11/25 03:12:50;;;;;;;16.85;3.08;;;;;;;6.96;100.00;100791.84;4946121;28;20035;-76
2022/11/25 03:15:16;;;;;;;23.23;3.35;;;;;;;6.91;100.00;100794.00;4964406;28;20034;-77
2022/11/25 03:17:41;;;;;;;21.33;3.80;;;;;;;6.85;100.00;100794.53;4927268;28;20042;-76
2022/11/25 03:20:09;;;;;;;18.95;3.00;;;;;;;6.85;100.00;100803.06;4970013;28;20046;-77
2022/11/25 03:22:35;;;;;;;19.33;4.10;;;;;;;6.94;100.00;100798.91;4963619;28;20033;-76
2022/11/25 03:25:03;;;;;;;19.00;3.97;;;;;;;7.04;100.00;100804.09;4967066;28;20391;-77
2022/11/25 03:27:28;;;;;;;16.88;3.03;;;;;;;7.12;100.00;100801.66;4963112;28;20043;-76
2022/11/25 03:29:55;;;;;;;14.75;3.28;;;;;;;7.23;100.00;100804.09;4966882;28;20062;-77
2022/11/25 03:32:20;;;;;;;23.25;3.72;;;;;;;7.09;100.00;100807.88;4965942;28;20459;-77
2022/11/25 03:34:46;;;;;;;20.63;3.97;;;;;;;6.97;100.00;100816.69;4934178;28;20128;-77
2022/11/25 03:37:11;;;;;;;14.60;3.25;;;;;;;6.88;100.00;100826.03;4954298;28;20051;-79
2022/11/25 03:39:37;;;;;;;21.75;3.25;;;;;;;6.88;100.00;100825.22;4947827;28;20038;-79
2022/11/25 03:42:04;;;;;;;18.83;3.78;;;;;;;6.82;100.00;100840.25;4935815;28;20035;-78
2022/11/25 03:44:30;;;;;;;20.95;3.17;;;;;;;6.96;100.00;100833.09;4959055;28;20034;-78
2022/11/25 03:46:55;;;;;;;17.05;4.10;;;;;;;6.87;100.00;100847.59;4962527;28;20043;-78
2022/11/25 03:49:21;;;;;;;17.42;3.00;;;;;;;6.79;100.00;100853.38;4946159;28;20034;-79
2022/11/25 03:51:47;;;;;;;17.42;3.35;;;;;;;6.94;100.00;100856.44;4957685;28;20051;-78
2022/11/25 03:54:14;;;;;;;17.83;3.20;;;;;;;6.89;100.00;100857.78;4963820;28;20023;-79
2022/11/25 03:57:00;;;;;;;19.52;3.08;;;;;;;6.96;100.00;100857.13;4950967;28;20403;-79
2022/11/25 03:59:27;;;;;;;18.48;3.50;;;;;;;7.04;100.00;100860.81;4945708;28;20190;-79
2022/11/25 04:01:52;;;;;;;19.20;3.58;;;;;;;6.93;100.00;100847.09;4926140;28;20067;-78
2022/11/25 04:04:18;;;;;;;19.65;3.30;;;;;;;7.04;100.00;100853.88;4947740;28;20051;-78
2022/11/25 04:06:43;;;;;;;24.75;4.15;;;;;;;6.98;100.00;100857.78;4946714;28;20046;-80
2022/11/25 04:09:10;;;;;;;15.88;3.60;;;;;;;6.89;100.00;100858.56;4962862;28;20046;-80
2022/11/25 04:14:22;;;;;;;17.05;3.45;;;;;;;6.85;100.00;100861.56;4947880;28;20097;-80
2022/11/25 04:16:48;;;;;;;17.17;3.95;;;;;;;6.80;100.00;100856.81;4961414;28;20491;-80
2022/11/25 04:19:13;;;;;;;14.40;3.40;;;;;;;6.81;100.00;100851.50;4961212;28;20042;-80
2022/11/25 04:21:39;;;;;;;17.50;3.72;;;;;;;6.78;100.00;100853.50;4955492;28;20103;-80
2022/11/25 04:24:06;;;;;;;17.50;3.33;;;;;;;6.75;100.00;100870.06;4967606;28;20126;-82
2022/11/25 04:26:32;;;;;;;14.52;3.35;;;;;;;6.74;100.00;100871.03;4953645;28;20047;-81
2022/11/25 04:28:59;;;;;;;13.00;2.97;;;;;;;6.74;100.00;100875.34;4950843;28;20039;-81
2022/11/25 04:31:26;;;;;;;17.35;3.72;;;;;;;6.72;100.00;100875.47;4942339;28;20408;-81
2022/11/25 04:33:52;;;;;;;13.45;3.90;;;;;;;6.70;100.00;100877.34;4949210;28;20027;-81
2022/11/25 04:36:17;;;;;;;11.60;2.60;;;;;;;6.71;100.00;100886.75;4947601;28;20490;-81
2022/11/25 04:38:43;;;;;;;15.85;3.15;;;;;;;6.81;100.00;100885.00;4931625;28;20053;-81
2022/11/25 04:41:09;;;;;;;11.98;3.72;;;;;;;6.78;100.00;100894.75;4933697;28;20555;-80
2022/11/25 04:43:38;;;;;;;19.27;3.85;;;;;;;6.81;100.00;100895.31;4976301;28;20447;-80
2022/11/25 04:46:16;;;;;;;18.25;4.10;;;;;;;6.83;100.00;100896.00;4952215;28;20038;-81
2022/11/25 04:48:45;;;;;;;18.45;5.25;;;;;;;6.87;100.00;100898.34;4952029;28;20503;-80
2022/11/25 04:51:13;;;;;;;18.45;3.70;;;;;;;6.84;100.00;100891.69;4952158;28;20109;-80
2022/11/25 04:53:39;;;;;;;27.95;3.78;;;;;;;6.79;100.00;100897.22;4934500;28;20739;-81
2022/11/25 04:56:06;;;;;;;16.17;4.80;;;;;;;6.86;100.00;100889.78;4930605;28;20035;-81
2022/11/25 05:01:23;;;;;;;23.58;4.70;;;;;;;6.90;100.00;100886.00;4958391;28;20551;-80
2022/11/25 05:03:52;;;;;;;18.33;3.50;;;;;;;7.20;100.00;100874.84;4947147;28;20109;-78
2022/11/25 05:06:18;;;;;;;20.95;3.55;;;;;;;7.21;100.00;100867.91;4962330;28;20128;-78
2022/11/25 05:08:47;;;;;;;20.10;3.63;;;;;;;7.24;100.00;100880.53;4943863;28;20074;-80
2022/11/25 05:11:13;;;;;;;17.75;3.10;;;;;;;7.20;100.00;100899.81;4960347;28;20047;-82
2022/11/25 05:13:38;;;;;;;17.05;3.72;;;;;;;7.14;100.00;100893.41;4948763;28;20074;-82
2022/11/25 05:16:05;;;;;;;16.10;2.70;;;;;;;7.11;100.00;100916.06;4946280;28;20143;-81
2022/11/25 05:18:31;;;;;;;17.60;3.33;;;;;;;7.11;100.00;100922.03;4945786;28;20125;-81
2022/11/25 05:21:01;;;;;;;12.07;2.70;;;;;;;7.09;100.00;100929.09;4962040;28;20062;-82
2022/11/25 05:23:28;;;;;;;14.68;2.92;;;;;;;7.13;100.00;100921.91;4963390;28;20043;-81
2022/11/25 05:26:01;;;;;;;18.05;3.50;;;;;;;7.09;100.00;100923.13;4933967;28;20069;-82
2022/11/25 05:28:36;;;;;;;16.77;3.30;;;;;;;7.06;100.00;100923.38;4951737;28;20034;-81
2022/11/25 05:31:02;;;;;;;11.77;2.78;;;;;;;7.03;100.00;100937.34;4953395;28;20098;-81
2022/11/25 05:33:27;;;;;;;15.15;3.45;;;;;;;6.98;100.00;100935.16;4966896;28;20035;-81
2022/11/25 05:35:58;;;;;;;16.35;3.30;;;;;;;7.05;100.00;100940.63;4969986;28;20558;-82
2022/11/25 05:38:29;;;;;;;20.50;3.90;;;;;;;7.02;100.00;100928.78;4964804;28;20376;-81
2022/11/25 05:41:05;;;;;;;12.23;2.78;;;;;;;7.00;100.00;100933.25;4936438;28;20101;-81
2022/11/25 05:43:32;;;;;;;21.20;3.08;;;;;;;6.98;100.00;100942.88;4933328;28;20050;-82
2022/11/25 05:46:03;;;;;;;17.15;3.08;;;;;;;6.94;100.00;100938.13;4957190;28;20439;-82
2022/11/25 05:48:29;;;;;;;18.73;3.30;;;;;;;6.95;100.00;100934.59;4953544;28;20030;-81
2022/11/25 05:50:59;;;;;;;11.75;2.97;;;;;;;6.95;100.00;100944.91;4932064;28;20792;-81
2022/11/25 05:53:27;;;;;;;15.93;3.17;;;;;;;6.96;100.00;100946.53;4965226;28;21699;-80
2022/11/25 05:56:02;;;;;;;13.95;2.55;;;;;;;6.97;100.00;100953.34;4943596;28;20388;-81
2022/11/25 05:58:47;;;;;;;19.42;3.65;;;;;;;7.07;100.00;100948.22;4968334;28;20572;-81
2022/11/25 06:01:14;;;;;;;17.02;3.13;;;;;;;7.08;100.00;100948.06;4948670;28;20483;-81
2022/11/25 06:03:41;;;;;;;14.50;3.03;;;;;;;7.06;100.00;100954.31;4964385;28;22504;-82
2022/11/25 06:06:09;;;;;;;17.52;3.53;;;;;;;7.06;100.00;100947.38;4961635;28;20042;-81
2022/11/25 06:08:36;;;;;;;17.95;3.83;;;;;;;7.04;100.00;100959.59;4950833;28;20038;-81
2022/11/25 06:11:11;;;;;;;23.98;3.83;;;;;;;6.99;100.00;100967.72;4968993;28;20199;-82
2022/11/25 06:13:38;;;;;;;15.80;2.65;;;;;;;7.05;100.00;100966.41;4969050;28;20038;-81
2022/11/25 06:16:16;;;;;;;20.35;3.47;;;;;;;7.04;100.00;100972.50;4947119;28;20043;-81
2022/11/25 06:18:44;;;;;;;14.48;2.92;;;;;;;7.04;100.00;100967.34;4964528;28;21349;-80
2022/11/25 06:21:11;;;;;;;14.50;3.03;;;;;;;7.07;100.00;100977.41;4950721;28;20046;-81
2022/11/25 06:23:37;;;;;;;16.08;3.47;;;;;;;7.02;100.00;100977.78;4957956;28;20050;-81
2022/11/25 06:26:18;;;;;;;17.70;3.95;;;;;;;7.12;100.00;100982.16;4947184;28;20046;-80
2022/11/25 06:28:46;;;;;;;14.30;3.50;;;;;;;7.26;100.00;100983.59;4963587;28;20027;-80
2022/11/25 06:31:20;;;;;;;18.67;4.72;;;;;;;7.17;100.00;100975.66;4953479;28;20047;-81
2022/11/25 06:33:55;;;;;;;14.85;3.92;;;;;;;7.07;100.00;100989.47;4937345;28;20031;-81
2022/11/25 06:36:22;;;;;;;18.38;3.58;;;;;;;6.98;100.00;100984.13;4954003;28;20043;-81
2022/11/25 06:38:52;;;;;;;17.83;5.03;;;;;;;6.92;100.00;100991.56;4973313;28;20129;-81
2022/11/25 06:41:18;;;;;;;23.90;3.78;;;;;;;6.97;100.00;100987.66;4968011;28;20061;-81
2022/11/25 06:43:44;;;;;;;19.80;4.75;;;;;;;6.93;100.00;100998.34;4933953;28;20483;-80
2022/11/25 06:46:12;;;;;;;15.40;4.15;;;;;;;6.84;100.00;100989.63;4937179;28;20106;-81
2022/11/25 06:48:38;;;;;;;26.42;4.75;;;;;;;6.90;100.00;100991.69;4939474;28;20300;-81
2022/11/25 06:51:06;;;;;;;13.63;3.55;;;;;;;6.79;100.00;101008.03;4952838;28;20137;-82
2022/11/25 06:53:33;;;;;;;10.48;4.68;;;;;;;6.73;100.00;101000.00;4937965;28;20027;-82
2022/11/25 06:56:02;;;;;;;15.80;5.57;;;;;;;6.67;100.00;101006.47;4965691;28;20085;-81
2022/11/25 06:58:29;;;;;;;16.20;4.65;;;;;;;6.60;100.00;101015.66;4969707;28;20057;-81
2022/11/25 07:01:00;;;;;;;15.63;4.10;;;;;;;6.55;100.00;101018.59;4965341;28;20161;-81
2022/11/25 07:03:25;;;;;;;16.17;4.07;;;;;;;6.52;100.00;101018.03;4944188;28;20034;-81
2022/11/25 07:05:54;;;;;;;19.30;5.05;;;;;;;6.47;100.00;101015.81;4946765;28;20050;-80
2022/11/25 07:08:21;;;;;;;21.05;3.83;;;;;;;6.41;100.00;101021.47;4950401;28;20047;-81
2022/11/25 07:10:46;;;;;;;10.07;3.45;;;;;;;6.36;100.00;101021.81;4964631;28;20082;-81
2022/11/25 07:13:12;;;;;;;24.75;5.60;;;;;;;6.35;100.00;101021.97;4950991;28;20046;-81
2022/11/25 07:18:20;;;;;;;11.75;3.50;;;;;;;6.27;100.00;101034.63;5002382;28;20055;-74
2022/11/25 07:20:49;;;;;;;11.95;3.70;;;;;;;6.22;100.00;101035.81;4984691;28;20046;-74
2022/11/25 07:23:17;;;;;;;11.95;3.63;;;;;;;6.18;100.00;101042.16;4988261;28;20096;-74
2022/11/25 07:26:07;;;;;;;15.48;3.85;;;;;;;6.17;100.00;101042.28;4979370;28;20037;-74
2022/11/25 07:28:34;;;;;;;15.10;3.42;;;;;;;6.13;100.00;101057.13;4990089;23;22127;-78
2022/11/25 07:31:17;;;;;;;13.73;3.40;;;;;;;6.11;100.00;101053.88;4985003;28;20518;-78
2022/11/25 07:33:43;;;;;;;;;;;;;;;6.10;100.00;101062.53;4986906;28;20033;-78
2022/11/25 07:36:10;;;;;;;16.02;4.00;;;;;;;6.09;100.00;101071.19;4986629;28;19921;-79
2022/11/25 07:38:36;;;;;;;13.98;3.65;;;;;;;6.02;100.00;101072.59;4985607;28;20056;-79
2022/11/25 07:41:06;;;;;;;7.60;3.30;;;;;;;6.00;100.00;101070.16;4998519;28;20420;-78
2022/11/25 07:43:32;;;;;;;18.88;3.47;;;;;;;5.99;100.00;101067.69;4999846;28;20116;-78
2022/11/25 07:46:20;;;;;;;12.15;3.00;;;;;;;6.14;100.00;101075.97;4998199;28;20500;-78
2022/11/25 07:48:46;;;;;;;17.35;3.53;;;;;;;6.18;100.00;101083.34;5002432;28;20599;-79
2022/11/25 07:51:23;;;;;;;17.02;3.45;;;;;;;6.15;100.00;101093.06;4987344;28;20072;-78
2022/11/25 07:53:49;;;;;;;14.75;3.80;;;;;;;6.11;100.00;101095.06;5005596;28;20044;-78
2022/11/25 07:56:16;;;;;;;18.95;5.13;;;;;;;6.10;100.00;101096.00;4998807;28;20053;-79
2022/11/25 07:58:42;;;;;;;12.98;3.25;;;;;;;6.09;100.00;101099.53;4976915;28;20392;-78
2022/11/25 08:01:10;;;;;;;17.83;4.05;;;;;;;6.08;100.00;101097.88;4999610;28;20049;-79
2022/11/25 08:03:37;;;;;;;18.88;4.75;;;;;;;6.11;100.00;101107.13;5000829;28;20038;-78
2022/11/25 08:06:11;;;;;;;17.85;4.85;;;;;;;6.10;100.00;101110.63;4996374;28;20089;-79
2022/11/25 08:08:38;;;;;;;23.65;4.95;;;;;;;6.12;100.00;101108.75;5002676;28;20034;-79
2022/11/25 08:11:12;;;;;;;19.65;4.60;;;;;;;6.12;100.00;101111.31;4998071;28;20099;-78
2022/11/25 08:13:38;;;;;;;12.95;5.28;;;;;;;6.13;100.00;101105.25;5002109;28;20044;-78
2022/11/25 08:16:04;;;;;;;15.23;4.40;;;;;;;6.20;100.00;101114.16;4999176;28;20495;-78
2022/11/25 08:18:30;;;;;;;23.00;5.78;;;;;;;6.38;100.00;101111.88;4997074;28;20026;-78
2022/11/25 08:21:04;;;;;;;22.73;5.32;;;;;;;6.53;100.00;101122.72;4994985;28;20377;-78
2022/11/25 08:23:33;;;;;;;19.35;5.40;;;;;;;6.50;100.00;101125.53;5000701;28;20175;-78
2022/11/25 08:26:04;;;;;;;19.70;5.88;;;;;;;6.49;100.00;101129.88;4982468;28;20054;-78
2022/11/25 08:28:29;;;;;;;19.92;5.70;;;;;;;6.51;100.00;101133.16;5002630;28;20049;-78
2022/11/25 08:31:07;;;;;;;16.48;4.20;;;;;;;6.60;100.00;101135.00;5011553;28;20041;-77
2022/11/25 08:33:33;;;;;;;15.55;3.78;;;;;;;6.60;100.00;101136.75;5013612;28;20148;-78
2022/11/25 08:35:59;;;;;;;22.92;4.40;;;;;;;6.66;100.00;101140.59;4979244;28;20121;-78
2022/11/25 08:38:25;;;;;;;16.63;3.83;;;;;;;6.75;100.00;101140.69;4984919;28;20052;-78
2022/11/25 08:40:50;;;;;;;21.33;4.45;;;;;;;6.84;100.00;101149.47;4997118;28;20407;-78
2022/11/25 08:43:17;;;;;;;18.02;3.75;;;;;;;6.77;100.00;101143.97;4985657;28;20030;-78
2022/11/25 08:45:42;;;;;;;15.70;3.60;;;;;;;6.88;100.00;101148.25;5018419;28;20045;-78
2022/11/25 08:48:08;;;;;;;18.13;3.38;;;;;;;6.99;100.00;101158.53;4983446;28;20048;-78
2022/11/25 08:50:34;;;;;;;15.00;2.83;;;;;;;7.15;100.00;101146.97;4986004;28;20108;-78
2022/11/25 08:53:00;;;;;;;19.55;3.40;;;;;;;7.17;100.00;101137.34;4988051;28;20029;-78
2022/11/25 08:55:26;;;;;;;16.58;4.38;;;;;;;7.28;100.00;101147.59;4983061;28;20054;-78
2022/11/25 08:57:53;;;;;;;15.15;2.65;;;;;;;7.43;100.00;101145.53;4995764;28;20037;-79
2022/11/25 09:00:19;;;;;;;18.92;3.88;;;;;;;7.37;100.00;101146.84;4985635;28;20036;-78
2022/11/25 09:02:45;;;;;;;16.45;3.17;;;;;;;7.39;100.00;101152.69;5017622;28;20038;-77
2022/11/25 09:05:13;;;;;;;17.38;4.40;;;;;;;7.49;100.00;101159.69;4993425;28;20045;-78
2022/11/25 09:07:39;;;;;;;13.75;3.53;;;;;;;7.63;100.00;101155.94;4987972;28;20514;-78
2022/11/25 09:10:06;;;;;;;13.70;3.40;;;;;;;7.80;100.00;101160.53;4983076;28;20061;-78
2022/11/25 09:12:32;;;;;;;18.35;2.80;;;;;;;7.92;100.00;101159.47;4983804;28;20022;-78
2022/11/25 09:14:57;;;;;;;16.83;3.33;;;;;;;7.99;100.00;101159.78;4997155;28;20509;-78
2022/11/25 09:17:23;;;;;;;18.58;3.80;;;;;;;8.13;100.00;101158.59;5011303;28;20179;-79
2022/11/25 09:19:48;;;;;;;14.10;3.28;;;;;;;8.11;100.00;101163.09;4986651;28;20038;-78
2022/11/25 09:22:14;;;;;;;16.73;3.50;;;;;;;8.08;100.00;101161.59;5014462;28;20053;-78
2022/11/25 09:24:40;;;;;;;17.85;3.03;;;;;;;8.09;100.00;101170.16;5018246;28;20038;-79
2022/11/25 09:27:06;;;;;;;20.58;4.40;;;;;;;8.21;100.00;101169.09;4993643;28;20042;-78
2022/11/25 09:29:31;;;;;;;19.48;4.38;;;;;;;8.17;100.00;101175.47;5001810;28;20057;-78
2022/11/25 09:31:57;;;;;;;18.98;4.53;;;;;;;8.17;100.00;101175.47;4997540;28;20128;-77
2022/11/25 09:34:23;;;;;;;13.07;3.25;;;;;;;8.28;100.00;101179.72;5003484;28;20033;-78
2022/11/25 09:36:48;;;;;;;19.02;3.60;;;;;;;8.16;100.00;101190.16;4994721;28;20050;-78
2022/11/25 09:39:14;;;;;;;20.02;4.18;;;;;;;8.34;100.00;101192.97;4979177;28;20037;-78
2022/11/25 09:47:40;;;;;;;17.10;3.78;;;;;;;8.32;100.00;101201.78;4998106;28;20073;-77
2022/11/25 09:50:54;;;;;;;17.23;3.22;;;;;;;8.39;100.00;101201.09;5009196;28;20114;-78
2022/11/25 09:53:35;;;;;;;9.77;3.17;;;;;;;8.50;100.00;101207.97;4960325;28;20517;-78
2022/11/25 09:56:03;;;;;;;21.35;6.47;;;;;;;8.43;100.00;101212.03;4993330;28;20066;-78
2022/11/25 09:58:36;;;;;;;23.40;4.60;;;;;;;8.55;100.00;101210.16;5012491;28;20030;-78
2022/11/25 10:01:11;;;;;;;18.45;3.35;;;;;;;8.45;100.00;101211.91;4979590;28;20120;-78
2022/11/25 10:03:53;;;;;;;21.85;3.20;;;;;;;8.43;100.00;101212.03;4997537;28;20085;-77
2022/11/25 10:06:22;;;;;;;16.23;3.13;;;;;;;8.51;100.00;101219.13;4998309;28;20136;-78
2022/11/25 10:08:51;;;;;;;20.08;4.35;;;;;;;8.55;100.00;101226.50;5012751;28;20048;-78
2022/11/25 10:11:20;;;;;;;12.25;3.63;;;;;;;8.57;100.00;101232.34;5002124;28;20061;-77
2022/11/25 10:14:01;;;;;;;21.35;4.03;;;;;;;8.61;100.00;101242.41;4994103;28;20044;-78
2022/11/25 10:16:51;;;;;;;20.83;5.20;;;;;;;8.75;100.00;101247.22;4999724;28;20116;-78
2022/11/25 10:19:34;;;;;;;21.65;4.93;;;;;;;8.79;100.00;101242.59;5017495;28;20037;-78
2022/11/25 10:22:08;;;;;;;;;;;;;;;8.85;100.00;101234.31;5002902;28;20046;-78
2022/11/25 10:24:34;;;;;;;21.05;3.30;;;;;;;8.86;100.00;101244.53;5001792;28;19914;-77
2022/11/25 10:27:06;;;;;;;17.50;2.55;;;;;;;8.91;100.00;101242.34;5000918;28;20042;-79
2022/11/25 10:29:34;;;;;;;18.05;3.03;;;;;;;8.92;100.00;101245.75;4962117;28;1080419;-77
2022/11/25 10:32:08;;;;;;;16.42;4.72;;;;;;;8.93;100.00;101255.97;5006248;28;20046;-78
2022/11/25 10:34:45;;;;;;;13.65;2.58;;;;;;;8.98;100.00;101249.56;5004732;28;20054;-78
2022/11/25 10:37:18;;;;;;;14.18;3.00;;;;;;;8.85;100.00;101258.38;4986400;28;20440;-77
2022/11/25 10:39:43;;;;;;;11.15;2.85;;;;;;;8.89;100.00;101251.19;5002234;28;20120;-77
2022/11/25 10:42:21;;;;;;;19.58;2.83;;;;;;;8.89;100.00;101256.34;5018629;28;20830;-78
2022/11/25 10:44:46;;;;;;;16.77;3.55;;;;;;;8.88;100.00;101254.72;5017537;28;20256;-78
2022/11/25 10:47:18;;;;;;;23.13;3.60;;;;;;;8.95;100.00;101251.47;5005200;28;20045;-77
2022/11/25 10:49:56;;;;;;;16.92;3.25;;;;;;;8.96;100.00;101257.47;5003802;28;20076;-77
2022/11/25 10:52:22;;;;;;;14.95;2.50;;;;;;;8.93;100.00;101266.31;5003601;28;20058;-77
2022/11/25 10:54:55;;;;;;;16.92;3.28;;;;;;;9.02;100.00;101262.09;4986526;28;20610;-77
2022/11/25 10:57:27;;;;;;;12.15;2.60;;;;;;;8.95;100.00;101264.41;4986934;28;20058;-78
2022/11/25 10:59:58;;;;;;;14.60;3.53;;;;;;;8.97;100.00;101272.03;5019487;28;20038;-78
2022/11/25 11:02:37;;;;;;;27.40;3.70;;;;;;;9.16;100.00;101269.47;5000923;28;20121;-79
2022/11/25 11:05:23;;;;;;;16.17;2.97;;;;;;;9.10;100.00;101269.22;4995745;28;20034;-78
2022/11/25 11:08:07;;;;;;;15.50;3.20;;;;;;;9.15;100.00;101279.94;5010262;28;20448;-78
2022/11/25 11:10:32;;;;;;;13.70;2.40;;;;;;;9.14;100.00;101281.72;5002241;28;20635;-77
2022/11/25 11:13:19;;;;;;;14.25;2.40;;;;;;;9.19;100.00;101278.72;4997998;28;20034;-78
2022/11/25 11:15:46;;;;;;;15.77;2.63;;;;;;;9.26;100.00;101291.94;5010620;28;20069;-78
2022/11/25 11:18:24;;;;;;;12.63;2.72;;;;;;;9.26;100.00;101282.41;4998858;28;20034;-78
2022/11/25 11:20:52;;;;;;;13.68;2.85;;;;;;;9.21;99.99;101294.13;4997533;28;20456;-77
2022/11/25 11:23:17;;;;;;;14.57;2.88;;;;;;;9.25;100.00;101285.97;4987166;28;20100;-78
2022/11/25 11:25:56;;;;;;;11.70;2.20;;;;;;;9.20;100.00;101289.91;4984783;28;20520;-78
2022/11/25 11:28:35;;;;;;;16.85;3.83;;;;;;;9.34;98.98;101298.09;5001070;28;20033;-79
2022/11/25 11:31:26;;;;;;;18.60;2.70;;;;;;;9.38;98.28;101295.22;4987880;28;20369;-79
2022/11/25 11:33:56;;;;;;;19.13;2.80;;;;;;;9.43;98.61;101303.41;5019323;28;20031;-79
2022/11/25 11:36:56;;;;;;;20.23;3.05;;;;;;;9.33;98.71;101298.22;5003780;28;20061;-78
2022/11/25 11:39:49;;;;;;;16.50;3.08;;;;;;;9.37;97.99;101301.38;5002117;28;20034;-78
2022/11/25 11:42:36;;;;;;;16.45;2.97;;;;;;;9.42;97.75;101312.09;5000905;28;20054;-78
2022/11/25 11:45:24;;;;;;;18.98;2.67;;;;;;;9.36;97.19;101303.09;4988720;28;21024;-79
2022/11/25 11:48:17;;;;;;;12.32;2.45;;;;;;;9.46;97.35;101313.50;5018969;28;20113;-78